Time;durP1;ratioP1;P1;durP2;ratioP2;P2;SDS_P1;SDS_P2;PMS_P1;PMS_P2;Temp;Humidity;BMP_temperature;BMP_pressure;BME280_temperature;BME280_humidity;BME280_pressure;Samples;Min_cycle;Max_cycle;Signal;HPM_P1;HPM_P2
2022/09/21 00:00:13;;;;;;;0.00;0.00;;;;;;;;;;1760372;28;20302;-70
2022/09/21 00:01:06;;;;;;;0.00;0.00;;;;;;;;;;1760398;28;20224;-71
2022/09/21 00:01:57;;;;;;;0.00;0.00;;;;;;;;;;1760611;28;20542;-71
2022/09/21 00:02:50;;;;;;;0.00;0.00;;;;;;;;;;1761012;28;20203;-71
2022/09/21 00:03:42;;;;;;;0.00;0.00;;;;;;;;;;1760296;28;20201;-71
2022/09/21 00:04:34;;;;;;;0.00;0.00;;;;;;;;;;1761097;28;20231;-71
2022/09/21 00:05:25;;;;;;;0.00;0.00;;;;;;;;;;1759043;28;20258;-72
2022/09/21 00:06:18;;;;;;;0.00;0.00;;;;;;;;;;1760860;28;20526;-72
2022/09/21 00:07:09;;;;;;;0.00;0.00;;;;;;;;;;1760629;28;20570;-72
2022/09/21 00:08:01;;;;;;;0.00;0.00;;;;;;;;;;1760483;28;20209;-72
2022/09/21 00:08:52;;;;;;;0.00;0.00;;;;;;;;;;1760366;28;20646;-72
2022/09/21 00:09:44;;;;;;;0.10;0.10;;;;;;;;;;1760750;27;20259;-72
2022/09/21 00:10:35;;;;;;;0.00;0.00;;;;;;;;;;1759896;28;20773;-71
2022/09/21 00:11:28;;;;;;;0.00;0.00;;;;;;;;;;1761124;28;20284;-71
2022/09/21 00:12:19;;;;;;;0.00;0.00;;;;;;;;;;1753757;28;20198;-71
2022/09/21 00:13:12;;;;;;;0.00;0.00;;;;;;;;;;1755331;28;20258;-71
2022/09/21 00:14:06;;;;;;;0.00;0.00;;;;;;;;;;1760563;28;20265;-71
2022/09/21 00:14:57;;;;;;;0.00;0.00;;;;;;;;;;1760443;28;20590;-71
2022/09/21 00:15:49;;;;;;;0.00;0.00;;;;;;;;;;1759845;28;20236;-71
2022/09/21 00:16:41;;;;;;;0.08;0.08;;;;;;;;;;1760614;28;20203;-71
2022/09/21 00:17:33;;;;;;;0.00;0.00;;;;;;;;;;1760915;28;20646;-71
2022/09/21 00:18:26;;;;;;;0.08;0.08;;;;;;;;;;1760226;28;20872;-71
2022/09/21 00:19:17;;;;;;;0.00;0.00;;;;;;;;;;1760541;28;20316;-71
2022/09/21 00:20:09;;;;;;;0.00;0.00;;;;;;;;;;1760462;28;20200;-71
2022/09/21 00:21:01;;;;;;;0.00;0.00;;;;;;;;;;1759380;28;20289;-71
2022/09/21 00:21:54;;;;;;;0.00;0.00;;;;;;;;;;1760067;28;20246;-71
2022/09/21 00:22:46;;;;;;;0.00;0.00;;;;;;;;;;1759830;28;20250;-72
2022/09/21 00:23:37;;;;;;;0.00;0.00;;;;;;;;;;1760716;27;20539;-71
2022/09/21 00:24:29;;;;;;;0.00;0.00;;;;;;;;;;1760516;28;20224;-71
2022/09/21 00:25:20;;;;;;;0.00;0.00;;;;;;;;;;1759080;28;20200;-71
2022/09/21 00:26:13;;;;;;;0.00;0.00;;;;;;;;;;1760742;28;20247;-71
2022/09/21 00:27:04;;;;;;;0.00;0.00;;;;;;;;;;1760231;28;20197;-71
2022/09/21 00:27:56;;;;;;;0.00;0.00;;;;;;;;;;1760443;28;20634;-71
2022/09/21 00:28:53;;;;;;;0.00;0.00;;;;;;;;;;1753598;28;20226;-71
2022/09/21 00:29:45;;;;;;;0.00;0.00;;;;;;;;;;1753622;28;20225;-71
2022/09/21 00:30:36;;;;;;;0.00;0.00;;;;;;;;;;1753238;28;20731;-71
2022/09/21 00:31:29;;;;;;;0.00;0.00;;;;;;;;;;1753224;28;20201;-71
2022/09/21 00:32:20;;;;;;;0.00;0.00;;;;;;;;;;1750150;28;20494;-71
2022/09/21 00:33:13;;;;;;;0.00;0.00;;;;;;;;;;1753259;28;20205;-71
2022/09/21 00:34:06;;;;;;;0.00;0.00;;;;;;;;;;1753593;28;20205;-71
2022/09/21 00:34:59;;;;;;;0.00;0.00;;;;;;;;;;1752898;28;20272;-71
2022/09/21 00:35:50;;;;;;;0.00;0.00;;;;;;;;;;1752697;28;20695;-72
2022/09/21 00:36:42;;;;;;;0.00;0.00;;;;;;;;;;1753323;28;20552;-72
2022/09/21 00:37:33;;;;;;;0.00;0.00;;;;;;;;;;1753619;28;20214;-72
2022/09/21 00:38:25;;;;;;;0.00;0.00;;;;;;;;;;1752727;28;20213;-72
2022/09/21 00:39:16;;;;;;;0.00;0.00;;;;;;;;;;1753447;28;20198;-72
2022/09/21 00:40:08;;;;;;;0.00;0.00;;;;;;;;;;1753203;28;20661;-72
2022/09/21 00:41:00;;;;;;;0.00;0.00;;;;;;;;;;1752300;28;20554;-71
2022/09/21 00:41:52;;;;;;;0.00;0.00;;;;;;;;;;1753129;28;20220;-71
2022/09/21 00:42:43;;;;;;;0.00;0.00;;;;;;;;;;1753626;28;20214;-71
2022/09/21 00:43:35;;;;;;;0.00;0.00;;;;;;;;;;1753277;28;20702;-71
2022/09/21 00:44:31;;;;;;;0.00;0.00;;;;;;;;;;1746621;28;20239;-71
2022/09/21 00:45:23;;;;;;;0.00;0.00;;;;;;;;;;1751371;28;20208;-72
2022/09/21 00:46:15;;;;;;;0.00;0.00;;;;;;;;;;1753787;28;20205;-72
2022/09/21 00:47:10;;;;;;;0.00;0.00;;;;;;;;;;1753381;28;20255;-72
2022/09/21 00:48:01;;;;;;;0.00;0.00;;;;;;;;;;1753160;28;20579;-72
2022/09/21 00:48:54;;;;;;;0.00;0.00;;;;;;;;;;1753289;28;20952;-72
2022/09/21 00:49:48;;;;;;;0.00;0.00;;;;;;;;;;1753263;28;20616;-72
2022/09/21 00:50:42;;;;;;;0.00;0.00;;;;;;;;;;1752654;28;20226;-71
2022/09/21 00:51:34;;;;;;;0.00;0.00;;;;;;;;;;1753271;28;20607;-71
2022/09/21 00:52:27;;;;;;;0.00;0.00;;;;;;;;;;1746954;28;20304;-71
2022/09/21 00:53:18;;;;;;;0.00;0.00;;;;;;;;;;1748753;28;20251;-71
2022/09/21 00:54:13;;;;;;;0.00;0.00;;;;;;;;;;1753423;28;20254;-71
2022/09/21 00:55:09;;;;;;;0.00;0.00;;;;;;;;;;1753415;28;20239;-71
2022/09/21 00:56:02;;;;;;;0.00;0.00;;;;;;;;;;1752247;28;20601;-72
2022/09/21 00:56:54;;;;;;;0.00;0.00;;;;;;;;;;1752940;28;20308;-72
2022/09/21 00:57:47;;;;;;;0.00;0.00;;;;;;;;;;1753456;28;20236;-72
2022/09/21 00:58:40;;;;;;;0.00;0.00;;;;;;;;;;1749694;28;20202;-72
2022/09/21 00:59:34;;;;;;;0.00;0.00;;;;;;;;;;1753601;28;20512;-72
2022/09/21 01:00:25;;;;;;;0.00;0.00;;;;;;;;;;1752005;28;20201;-72
2022/09/21 01:01:18;;;;;;;0.00;0.00;;;;;;;;;;1753144;28;20660;-72
2022/09/21 01:02:09;;;;;;;0.00;0.00;;;;;;;;;;1753255;28;20197;-72
2022/09/21 01:03:01;;;;;;;0.00;0.00;;;;;;;;;;1753150;28;20205;-72
2022/09/21 01:03:56;;;;;;;0.00;0.00;;;;;;;;;;1753049;28;20600;-72
2022/09/21 01:04:49;;;;;;;0.00;0.00;;;;;;;;;;1753137;28;20250;-72
2022/09/21 01:05:40;;;;;;;0.00;0.00;;;;;;;;;;1749012;28;20237;-71
2022/09/21 01:06:33;;;;;;;0.00;0.00;;;;;;;;;;1748459;28;22219;-71
2022/09/21 01:07:26;;;;;;;0.00;0.00;;;;;;;;;;1746809;28;20211;-71
2022/09/21 01:08:18;;;;;;;0.00;0.00;;;;;;;;;;1749227;28;20212;-71
2022/09/21 01:09:09;;;;;;;0.00;0.00;;;;;;;;;;1750111;28;20229;-71
2022/09/21 01:10:08;;;;;;;0.00;0.00;;;;;;;;;;1747420;28;20347;-71
2022/09/21 01:11:07;;;;;;;0.00;0.00;;;;;;;;;;1752093;28;20229;-71
2022/09/21 01:12:04;;;;;;;0.00;0.00;;;;;;;;;;1752663;28;20205;-71
2022/09/21 01:13:04;;;;;;;0.00;0.00;;;;;;;;;;1749024;28;20255;-71
2022/09/21 01:14:05;;;;;;;0.00;0.00;;;;;;;;;;1752498;28;20209;-71
2022/09/21 01:15:08;;;;;;;0.00;0.00;;;;;;;;;;1752890;28;20197;-71
2022/09/21 01:16:04;;;;;;;0.00;0.00;;;;;;;;;;1752158;28;20876;-72
2022/09/21 01:17:01;;;;;;;0.00;0.00;;;;;;;;;;1752624;28;20258;-72
2022/09/21 01:17:58;;;;;;;0.03;0.03;;;;;;;;;;1753190;28;20300;-72
2022/09/21 01:18:51;;;;;;;0.00;0.00;;;;;;;;;;1752968;28;20206;-72
2022/09/21 01:19:57;;;;;;;0.00;0.00;;;;;;;;;;1752630;28;20258;-72
2022/09/21 01:21:05;;;;;;;0.00;0.00;;;;;;;;;;1742753;28;20242;-71
2022/09/21 01:22:04;;;;;;;0.00;0.00;;;;;;;;;;1746329;28;20260;-71
2022/09/21 01:23:05;;;;;;;0.10;0.10;;;;;;;;;;1753437;28;20198;-71
2022/09/21 01:24:20;;;;;;;0.03;0.03;;;;;;;;;;1753063;28;20516;-71
2022/09/21 01:25:17;;;;;;;0.00;0.00;;;;;;;;;;1752581;28;20264;-72
2022/09/21 01:26:13;;;;;;;0.00;0.00;;;;;;;;;;1746994;28;20218;-72
2022/09/21 01:27:12;;;;;;;0.00;0.00;;;;;;;;;;1750545;28;20931;-72
2022/09/21 01:28:09;;;;;;;0.00;0.00;;;;;;;;;;1747469;28;20275;-72
2022/09/21 01:29:11;;;;;;;0.00;0.00;;;;;;;;;;1751307;28;20420;-72
2022/09/21 01:30:07;;;;;;;0.00;0.00;;;;;;;;;;1753104;28;20482;-72
2022/09/21 01:31:04;;;;;;;0.00;0.00;;;;;;;;;;1752152;28;20290;-72
2022/09/21 01:32:02;;;;;;;0.00;0.00;;;;;;;;;;1752868;28;20194;-72
2022/09/21 01:32:55;;;;;;;0.00;0.00;;;;;;;;;;1745790;28;20241;-72
2022/09/21 01:33:49;;;;;;;0.03;0.03;;;;;;;;;;1757521;28;20193;-72
2022/09/21 01:34:44;;;;;;;0.00;0.00;;;;;;;;;;1759419;28;20201;-72
2022/09/21 01:35:38;;;;;;;0.00;0.00;;;;;;;;;;1751669;28;20237;-72
2022/09/21 01:36:30;;;;;;;0.00;0.00;;;;;;;;;;1752734;28;20640;-72
2022/09/21 01:37:24;;;;;;;0.00;0.00;;;;;;;;;;1749534;28;20219;-72
2022/09/21 01:38:19;;;;;;;0.00;0.00;;;;;;;;;;1752405;28;20596;-72
2022/09/21 01:39:13;;;;;;;0.00;0.00;;;;;;;;;;1753388;28;20194;-72
2022/09/21 01:40:07;;;;;;;0.00;0.00;;;;;;;;;;1753140;28;20624;-72
2022/09/21 01:41:01;;;;;;;0.00;0.00;;;;;;;;;;1751832;28;20226;-72
2022/09/21 01:41:53;;;;;;;0.00;0.00;;;;;;;;;;1752696;28;20312;-72
2022/09/21 01:42:48;;;;;;;0.00;0.00;;;;;;;;;;1753158;28;20639;-72
2022/09/21 01:43:42;;;;;;;0.00;0.00;;;;;;;;;;1752497;28;20679;-72
2022/09/21 01:44:38;;;;;;;0.00;0.00;;;;;;;;;;1750278;28;20209;-72
2022/09/21 01:45:31;;;;;;;0.00;0.00;;;;;;;;;;1751752;28;20609;-72
2022/09/21 01:46:26;;;;;;;0.00;0.00;;;;;;;;;;1752754;28;20197;-71
2022/09/21 01:47:18;;;;;;;0.00;0.00;;;;;;;;;;1752856;28;20589;-71
2022/09/21 01:48:10;;;;;;;0.00;0.00;;;;;;;;;;1752560;28;20231;-71
2022/09/21 01:49:03;;;;;;;0.00;0.00;;;;;;;;;;1753061;28;20304;-71
2022/09/21 01:49:57;;;;;;;0.00;0.00;;;;;;;;;;1752737;28;20720;-71
2022/09/21 01:50:50;;;;;;;0.00;0.00;;;;;;;;;;1752198;28;20233;-72
2022/09/21 01:51:44;;;;;;;0.00;0.00;;;;;;;;;;1752777;28;20204;-72
2022/09/21 01:52:37;;;;;;;0.00;0.00;;;;;;;;;;1753116;28;20206;-72
2022/09/21 01:53:32;;;;;;;0.00;0.00;;;;;;;;;;1752405;28;20201;-72
2022/09/21 01:54:28;;;;;;;0.00;0.00;;;;;;;;;;1753163;28;20640;-72
2022/09/21 01:55:27;;;;;;;0.00;0.00;;;;;;;;;;1751614;28;20225;-72
2022/09/21 01:56:21;;;;;;;0.00;0.00;;;;;;;;;;1752821;28;20235;-72
2022/09/21 01:57:17;;;;;;;0.00;0.00;;;;;;;;;;1752564;28;20209;-72
2022/09/21 01:58:11;;;;;;;0.00;0.00;;;;;;;;;;1752649;28;20282;-72
2022/09/21 01:59:07;;;;;;;0.00;0.00;;;;;;;;;;1753122;28;20189;-72
2022/09/21 02:00:00;;;;;;;0.00;0.00;;;;;;;;;;1759062;28;20758;-72
2022/09/21 02:00:54;;;;;;;0.00;0.00;;;;;;;;;;1759090;28;20674;-71
2022/09/21 02:01:49;;;;;;;0.00;0.00;;;;;;;;;;1759196;28;20628;-71
2022/09/21 02:02:43;;;;;;;0.00;0.00;;;;;;;;;;1760008;28;20197;-71
2022/09/21 02:03:36;;;;;;;0.00;0.00;;;;;;;;;;1759078;28;20571;-71
2022/09/21 02:04:28;;;;;;;0.00;0.00;;;;;;;;;;1759919;28;20197;-71
2022/09/21 02:05:21;;;;;;;0.03;0.03;;;;;;;;;;1758072;28;20285;-72
2022/09/21 02:06:13;;;;;;;0.00;0.00;;;;;;;;;;1760108;28;20208;-72
2022/09/21 02:07:05;;;;;;;0.00;0.00;;;;;;;;;;1757979;28;20651;-72
2022/09/21 02:07:58;;;;;;;0.00;0.00;;;;;;;;;;1759625;28;20800;-72
2022/09/21 02:08:49;;;;;;;0.00;0.00;;;;;;;;;;1752743;28;20258;-72
2022/09/21 02:09:41;;;;;;;0.00;0.00;;;;;;;;;;1752595;28;20282;-72
2022/09/21 02:10:35;;;;;;;0.00;0.00;;;;;;;;;;1751965;28;20236;-72
2022/09/21 02:11:27;;;;;;;0.00;0.00;;;;;;;;;;1752684;28;20296;-72
2022/09/21 02:12:18;;;;;;;0.00;0.00;;;;;;;;;;1752897;28;20205;-72
2022/09/21 02:13:10;;;;;;;0.00;0.00;;;;;;;;;;1752529;28;20205;-72
2022/09/21 02:14:03;;;;;;;0.00;0.00;;;;;;;;;;1749566;28;20262;-72
2022/09/21 02:14:56;;;;;;;0.00;0.00;;;;;;;;;;1752441;28;20788;-72
2022/09/21 02:15:54;;;;;;;0.00;0.00;;;;;;;;;;1752058;28;20676;-72
2022/09/21 02:16:49;;;;;;;0.00;0.00;;;;;;;;;;1752864;28;20197;-72
2022/09/21 02:17:46;;;;;;;0.00;0.00;;;;;;;;;;1753024;28;20198;-72
2022/09/21 02:18:43;;;;;;;0.00;0.00;;;;;;;;;;1752665;28;20197;-72
2022/09/21 02:19:40;;;;;;;0.00;0.00;;;;;;;;;;1753091;28;20297;-72
2022/09/21 02:20:35;;;;;;;0.00;0.00;;;;;;;;;;1750596;28;21470;-71
2022/09/21 02:21:30;;;;;;;0.00;0.00;;;;;;;;;;1753171;28;20209;-71
2022/09/21 02:22:28;;;;;;;0.00;0.00;;;;;;;;;;1755814;28;20212;-71
2022/09/21 02:23:23;;;;;;;0.00;0.00;;;;;;;;;;1748491;28;20219;-71
2022/09/21 02:24:21;;;;;;;0.00;0.00;;;;;;;;;;1749158;28;20229;-71
2022/09/21 02:25:14;;;;;;;0.00;0.00;;;;;;;;;;1752021;28;20213;-71
2022/09/21 02:26:07;;;;;;;0.00;0.00;;;;;;;;;;1752665;28;20294;-72
2022/09/21 02:27:03;;;;;;;0.00;0.00;;;;;;;;;;1752253;28;20201;-72
2022/09/21 02:27:55;;;;;;;0.00;0.00;;;;;;;;;;1752672;28;20213;-72
2022/09/21 02:28:50;;;;;;;0.00;0.00;;;;;;;;;;1758371;28;20246;-72
2022/09/21 02:29:46;;;;;;;0.00;0.00;;;;;;;;;;1759623;28;20316;-72
2022/09/21 02:30:39;;;;;;;0.00;0.00;;;;;;;;;;1765425;27;20236;-72
2022/09/21 02:31:35;;;;;;;0.00;0.00;;;;;;;;;;1764791;27;20211;-72
2022/09/21 02:32:32;;;;;;;0.00;0.00;;;;;;;;;;1767035;28;20849;-72
2022/09/21 02:33:26;;;;;;;0.00;0.00;;;;;;;;;;1766031;28;20264;-72
2022/09/21 02:34:21;;;;;;;0.00;0.00;;;;;;;;;;1767036;28;20196;-72
2022/09/21 02:35:16;;;;;;;0.00;0.00;;;;;;;;;;1765891;28;20306;-72
2022/09/21 02:36:11;;;;;;;0.00;0.00;;;;;;;;;;1766605;28;20227;-72
2022/09/21 02:37:04;;;;;;;0.00;0.00;;;;;;;;;;1766077;28;20200;-72
2022/09/21 02:38:04;;;;;;;0.00;0.00;;;;;;;;;;1766792;28;20522;-72
2022/09/21 02:39:03;;;;;;;0.00;0.00;;;;;;;;;;1766828;28;20200;-72
2022/09/21 02:39:58;;;;;;;0.00;0.00;;;;;;;;;;1764623;28;20812;-72
2022/09/21 02:43:50;;;;;;;0.00;0.00;;;;;;;;;;1756582;28;20264;-72
2022/09/21 02:44:44;;;;;;;0.00;0.00;;;;;;;;;;1760060;28;20200;-72
2022/09/21 02:45:40;;;;;;;0.00;0.00;;;;;;;;;;1759201;28;20232;-72
2022/09/21 02:46:34;;;;;;;0.10;0.10;;;;;;;;;;1760732;28;20790;-72
2022/09/21 02:47:30;;;;;;;0.00;0.00;;;;;;;;;;1761534;28;20554;-72
2022/09/21 02:48:25;;;;;;;0.00;0.00;;;;;;;;;;1761088;28;20533;-72
2022/09/21 02:49:19;;;;;;;0.00;0.00;;;;;;;;;;1761775;28;20205;-72
2022/09/21 02:50:13;;;;;;;0.00;0.00;;;;;;;;;;1765821;27;20240;-72
2022/09/21 02:51:08;;;;;;;0.00;0.00;;;;;;;;;;1767573;27;20240;-72
2022/09/21 02:52:02;;;;;;;0.08;0.08;;;;;;;;;;1767590;27;20204;-72
2022/09/21 02:52:55;;;;;;;0.00;0.00;;;;;;;;;;1768827;27;20200;-72
2022/09/21 02:53:46;;;;;;;0.00;0.00;;;;;;;;;;1766187;27;20645;-72
2022/09/21 02:54:39;;;;;;;0.00;0.00;;;;;;;;;;1768659;27;20212;-72
2022/09/21 02:55:31;;;;;;;0.00;0.00;;;;;;;;;;1756638;28;20241;-71
2022/09/21 02:56:24;;;;;;;0.00;0.00;;;;;;;;;;1761216;28;20745;-71
2022/09/21 02:57:16;;;;;;;0.00;0.00;;;;;;;;;;1767879;27;20200;-71
2022/09/21 02:58:10;;;;;;;0.00;0.00;;;;;;;;;;1766725;27;20644;-71
2022/09/21 02:59:03;;;;;;;0.00;0.00;;;;;;;;;;1758071;28;20284;-71
2022/09/21 02:59:55;;;;;;;0.10;0.10;;;;;;;;;;1761865;27;20638;-71
2022/09/21 03:00:46;;;;;;;0.00;0.00;;;;;;;;;;1767965;27;20236;-71
2022/09/21 03:01:40;;;;;;;0.00;0.00;;;;;;;;;;1766318;27;20204;-71
2022/09/21 03:02:35;;;;;;;0.00;0.00;;;;;;;;;;1768755;27;20617;-71
2022/09/21 03:03:27;;;;;;;0.00;0.00;;;;;;;;;;1767548;27;20208;-71
2022/09/21 03:04:19;;;;;;;0.00;0.00;;;;;;;;;;1768659;27;20239;-71
2022/09/21 03:05:12;;;;;;;0.00;0.00;;;;;;;;;;1767632;27;20505;-72
2022/09/21 03:06:03;;;;;;;0.00;0.00;;;;;;;;;;1768276;27;20307;-72
2022/09/21 03:06:55;;;;;;;0.00;0.00;;;;;;;;;;1767271;27;20200;-72
2022/09/21 03:07:47;;;;;;;0.00;0.00;;;;;;;;;;1768475;27;20200;-72
2022/09/21 03:08:39;;;;;;;0.00;0.00;;;;;;;;;;1767542;27;20210;-72
2022/09/21 03:09:30;;;;;;;0.00;0.00;;;;;;;;;;1768762;27;20204;-72
2022/09/21 03:10:23;;;;;;;0.00;0.00;;;;;;;;;;1765281;27;20290;-70
2022/09/21 03:11:16;;;;;;;0.00;0.00;;;;;;;;;;1768773;27;20533;-71
2022/09/21 03:12:08;;;;;;;0.00;0.00;;;;;;;;;;1766517;27;20199;-71
2022/09/21 03:13:00;;;;;;;0.00;0.00;;;;;;;;;;1768001;27;20204;-70
2022/09/21 03:13:52;;;;;;;0.00;0.00;;;;;;;;;;1766083;27;20315;-70
2022/09/21 03:14:43;;;;;;;0.00;0.00;;;;;;;;;;1767441;27;20193;-71
2022/09/21 03:15:35;;;;;;;0.00;0.00;;;;;;;;;;1766945;27;20236;-72
2022/09/21 03:16:27;;;;;;;0.00;0.00;;;;;;;;;;1766635;27;20208;-72
2022/09/21 03:17:20;;;;;;;0.00;0.00;;;;;;;;;;1768222;27;20207;-72
2022/09/21 03:18:12;;;;;;;0.00;0.00;;;;;;;;;;1766406;27;20275;-72
2022/09/21 03:19:04;;;;;;;0.00;0.00;;;;;;;;;;1764690;27;20622;-72
2022/09/21 03:19:55;;;;;;;0.00;0.00;;;;;;;;;;1760908;28;20201;-72
2022/09/21 03:20:47;;;;;;;0.00;0.00;;;;;;;;;;1760060;28;20232;-71
2022/09/21 03:21:38;;;;;;;0.00;0.00;;;;;;;;;;1760276;27;20205;-71
2022/09/21 03:22:30;;;;;;;0.00;0.00;;;;;;;;;;1762172;27;20217;-71
2022/09/21 03:23:22;;;;;;;0.00;0.00;;;;;;;;;;1763952;27;20216;-71
2022/09/21 03:24:44;;;;;;;0.00;0.00;;;;;;;;;;1768534;27;20713;-71
2022/09/21 03:25:25;;;;;;;0.03;0.03;;;;;;;;;;1766358;27;20205;-72
2022/09/21 03:26:21;;;;;;;0.00;0.00;;;;;;;;;;1768474;27;20208;-72
2022/09/21 03:27:13;;;;;;;0.00;0.00;;;;;;;;;;1757048;28;20247;-72
2022/09/21 03:28:05;;;;;;;0.00;0.00;;;;;;;;;;1754001;28;20194;-72
2022/09/21 03:28:56;;;;;;;0.00;0.00;;;;;;;;;;1749762;28;20202;-72
2022/09/21 03:29:48;;;;;;;0.00;0.00;;;;;;;;;;1751724;28;20241;-72
2022/09/21 03:30:39;;;;;;;0.00;0.00;;;;;;;;;;1750246;28;20556;-71
2022/09/21 03:31:32;;;;;;;0.05;0.05;;;;;;;;;;1753857;28;20271;-71
2022/09/21 03:32:25;;;;;;;0.00;0.00;;;;;;;;;;1754299;28;20487;-71
2022/09/21 03:33:18;;;;;;;0.00;0.00;;;;;;;;;;1753754;28;20217;-71
2022/09/21 03:34:10;;;;;;;0.00;0.00;;;;;;;;;;1747979;28;20194;-71
2022/09/21 03:35:04;;;;;;;0.00;0.00;;;;;;;;;;1750360;28;20243;-71
2022/09/21 03:35:55;;;;;;;0.00;0.00;;;;;;;;;;1752982;28;20682;-71
2022/09/21 03:36:47;;;;;;;0.00;0.00;;;;;;;;;;1753898;28;20593;-71
2022/09/21 03:37:38;;;;;;;0.00;0.00;;;;;;;;;;1754458;28;20209;-71
2022/09/21 03:38:30;;;;;;;0.00;0.00;;;;;;;;;;1753659;28;20292;-71
2022/09/21 03:39:21;;;;;;;0.00;0.00;;;;;;;;;;1752101;28;20205;-71
2022/09/21 03:40:14;;;;;;;0.00;0.00;;;;;;;;;;1753084;28;20263;-72
2022/09/21 03:41:05;;;;;;;0.00;0.00;;;;;;;;;;1747630;28;21073;-71
2022/09/21 03:41:57;;;;;;;0.00;0.00;;;;;;;;;;1752675;28;20200;-72
2022/09/21 03:42:48;;;;;;;0.00;0.00;;;;;;;;;;1747660;28;20206;-72
2022/09/21 03:43:40;;;;;;;0.00;0.00;;;;;;;;;;1755248;28;20197;-72
2022/09/21 03:44:31;;;;;;;0.00;0.00;;;;;;;;;;1754303;28;20258;-72
2022/09/21 03:45:23;;;;;;;0.00;0.00;;;;;;;;;;1752535;28;20245;-70
2022/09/21 03:46:15;;;;;;;0.00;0.00;;;;;;;;;;1754360;28;20217;-71
2022/09/21 03:47:07;;;;;;;0.00;0.00;;;;;;;;;;1753555;28;20276;-71
2022/09/21 03:48:01;;;;;;;0.00;0.00;;;;;;;;;;1754113;28;20588;-71
2022/09/21 03:48:53;;;;;;;0.00;0.00;;;;;;;;;;1753980;28;20212;-71
2022/09/21 03:49:44;;;;;;;0.00;0.00;;;;;;;;;;1753929;28;20794;-71
2022/09/21 03:50:36;;;;;;;0.00;0.00;;;;;;;;;;1753352;28;20474;-72
2022/09/21 03:51:27;;;;;;;0.08;0.08;;;;;;;;;;1753780;28;20228;-72
2022/09/21 03:52:19;;;;;;;0.10;0.10;;;;;;;;;;1754044;28;20205;-72
2022/09/21 03:53:10;;;;;;;0.00;0.00;;;;;;;;;;1753591;28;20262;-72
2022/09/21 03:54:02;;;;;;;0.00;0.00;;;;;;;;;;1753906;28;20667;-72
2022/09/21 03:54:53;;;;;;;0.00;0.00;;;;;;;;;;1753604;28;20201;-72
2022/09/21 03:55:45;;;;;;;0.00;0.00;;;;;;;;;;1753301;28;20259;-71
2022/09/21 03:56:36;;;;;;;0.00;0.00;;;;;;;;;;1753863;28;20254;-71
2022/09/21 03:57:28;;;;;;;0.03;0.03;;;;;;;;;;1753770;28;20315;-71
2022/09/21 03:58:20;;;;;;;0.00;0.00;;;;;;;;;;1753582;28;20600;-71
2022/09/21 03:59:13;;;;;;;0.10;0.10;;;;;;;;;;1748055;28;20867;-71
2022/09/21 04:00:05;;;;;;;0.00;0.00;;;;;;;;;;1750994;28;20881;-71
2022/09/21 04:01:01;;;;;;;0.00;0.00;;;;;;;;;;1752502;28;20627;-72
2022/09/21 04:01:52;;;;;;;0.00;0.00;;;;;;;;;;1753747;28;20320;-72
2022/09/21 04:02:44;;;;;;;0.00;0.00;;;;;;;;;;1754194;28;20258;-72
2022/09/21 04:03:37;;;;;;;0.00;0.00;;;;;;;;;;1753801;28;20647;-72
2022/09/21 04:04:28;;;;;;;0.00;0.00;;;;;;;;;;1754014;28;20228;-72
2022/09/21 04:05:20;;;;;;;0.00;0.00;;;;;;;;;;1752467;28;20205;-72
2022/09/21 04:06:12;;;;;;;0.00;0.00;;;;;;;;;;1754400;28;20216;-72
2022/09/21 04:07:04;;;;;;;0.00;0.00;;;;;;;;;;1751090;28;21006;-72
2022/09/21 04:07:56;;;;;;;0.00;0.00;;;;;;;;;;1750143;28;20193;-72
2022/09/21 04:08:47;;;;;;;0.00;0.00;;;;;;;;;;1752125;28;20202;-72
2022/09/21 04:09:39;;;;;;;0.00;0.00;;;;;;;;;;1755551;28;20310;-72
2022/09/21 04:10:32;;;;;;;0.00;0.00;;;;;;;;;;1752695;28;22973;-72
2022/09/21 04:11:24;;;;;;;0.10;0.10;;;;;;;;;;1753767;28;20263;-72
2022/09/21 04:12:15;;;;;;;0.00;0.00;;;;;;;;;;1753388;28;20285;-72
2022/09/21 04:13:07;;;;;;;0.00;0.00;;;;;;;;;;1753777;28;20193;-72
2022/09/21 04:13:58;;;;;;;0.00;0.00;;;;;;;;;;1749697;28;20202;-72
2022/09/21 04:14:49;;;;;;;0.00;0.00;;;;;;;;;;1748313;28;20253;-72
2022/09/21 04:15:40;;;;;;;0.00;0.00;;;;;;;;;;1749552;28;20320;-71
2022/09/21 04:16:32;;;;;;;0.00;0.00;;;;;;;;;;1753648;28;20708;-71
2022/09/21 04:17:23;;;;;;;0.00;0.00;;;;;;;;;;1754157;28;20238;-71
2022/09/21 04:18:15;;;;;;;0.00;0.00;;;;;;;;;;1753637;28;20240;-71
2022/09/21 04:19:08;;;;;;;0.00;0.00;;;;;;;;;;1754235;28;20206;-71
2022/09/21 04:20:01;;;;;;;0.00;0.00;;;;;;;;;;1753037;28;20485;-71
2022/09/21 04:20:52;;;;;;;0.00;0.00;;;;;;;;;;1752816;28;20548;-72
2022/09/21 04:21:44;;;;;;;0.00;0.00;;;;;;;;;;1753696;28;20285;-72
2022/09/21 04:22:36;;;;;;;0.00;0.00;;;;;;;;;;1754272;28;20248;-72
2022/09/21 04:23:28;;;;;;;0.00;0.00;;;;;;;;;;1753552;28;20233;-72
2022/09/21 04:24:19;;;;;;;0.05;0.05;;;;;;;;;;1754089;28;20592;-72
2022/09/21 04:25:11;;;;;;;0.00;0.00;;;;;;;;;;1753927;28;20214;-72
2022/09/21 04:26:02;;;;;;;0.00;0.00;;;;;;;;;;1752870;28;20494;-71
2022/09/21 04:26:54;;;;;;;0.00;0.00;;;;;;;;;;1753623;28;20193;-71
2022/09/21 04:27:45;;;;;;;0.00;0.00;;;;;;;;;;1754011;28;20526;-71
2022/09/21 04:28:37;;;;;;;0.00;0.00;;;;;;;;;;1757577;28;20264;-71
2022/09/21 04:29:28;;;;;;;0.00;0.00;;;;;;;;;;1761228;28;20201;-71
2022/09/21 04:30:20;;;;;;;0.00;0.00;;;;;;;;;;1759222;28;20323;-72
2022/09/21 04:31:11;;;;;;;0.00;0.00;;;;;;;;;;1761272;28;20213;-72
2022/09/21 04:32:04;;;;;;;0.00;0.00;;;;;;;;;;1760715;28;20200;-72
2022/09/21 04:32:55;;;;;;;0.00;0.00;;;;;;;;;;1761166;28;20205;-72
2022/09/21 04:33:49;;;;;;;0.00;0.00;;;;;;;;;;1760450;28;20288;-72
2022/09/21 04:34:41;;;;;;;0.00;0.00;;;;;;;;;;1760923;28;20207;-72
2022/09/21 04:35:33;;;;;;;0.00;0.00;;;;;;;;;;1759815;28;20565;-71
2022/09/21 04:36:25;;;;;;;0.00;0.00;;;;;;;;;;1760737;28;20238;-71
2022/09/21 04:37:17;;;;;;;0.00;0.00;;;;;;;;;;1760996;28;20212;-71
2022/09/21 04:38:08;;;;;;;0.00;0.00;;;;;;;;;;1758534;27;20269;-71
2022/09/21 04:39:01;;;;;;;0.00;0.00;;;;;;;;;;1755726;28;20193;-71
2022/09/21 04:39:52;;;;;;;0.00;0.00;;;;;;;;;;1758031;28;20245;-71
2022/09/21 04:40:44;;;;;;;0.00;0.00;;;;;;;;;;1754454;28;20574;-71
2022/09/21 04:41:35;;;;;;;0.00;0.00;;;;;;;;;;1760660;28;20568;-71
2022/09/21 04:42:28;;;;;;;0.00;0.00;;;;;;;;;;1760477;28;20323;-71
2022/09/21 04:43:19;;;;;;;0.00;0.00;;;;;;;;;;1760441;28;20240;-71
2022/09/21 04:44:11;;;;;;;0.00;0.00;;;;;;;;;;1760883;28;20196;-71
2022/09/21 04:45:05;;;;;;;0.00;0.00;;;;;;;;;;1760874;28;20238;-71
2022/09/21 04:45:57;;;;;;;0.00;0.00;;;;;;;;;;1757924;28;20228;-71
2022/09/21 04:46:48;;;;;;;0.00;0.00;;;;;;;;;;1757862;28;20296;-71
2022/09/21 04:47:40;;;;;;;0.00;0.00;;;;;;;;;;1760992;28;20205;-71
2022/09/21 04:48:31;;;;;;;0.00;0.00;;;;;;;;;;1760313;28;20201;-71
2022/09/21 04:49:23;;;;;;;0.00;0.00;;;;;;;;;;1760980;28;20732;-71
2022/09/21 04:50:16;;;;;;;0.00;0.00;;;;;;;;;;1759471;28;20201;-71
2022/09/21 04:51:08;;;;;;;0.00;0.00;;;;;;;;;;1760829;28;20204;-71
2022/09/21 04:52:00;;;;;;;0.00;0.00;;;;;;;;;;1760266;28;20201;-71
2022/09/21 04:52:51;;;;;;;0.00;0.00;;;;;;;;;;1760891;28;20600;-71
2022/09/21 04:53:43;;;;;;;0.00;0.00;;;;;;;;;;1760337;28;20209;-71
2022/09/21 04:54:35;;;;;;;0.00;0.00;;;;;;;;;;1761036;28;20264;-71
2022/09/21 04:55:26;;;;;;;0.00;0.00;;;;;;;;;;1759502;28;20618;-72
2022/09/21 04:56:18;;;;;;;0.00;0.00;;;;;;;;;;1760501;28;20699;-71
2022/09/21 04:57:09;;;;;;;0.00;0.00;;;;;;;;;;1760375;28;20209;-72
2022/09/21 04:58:01;;;;;;;0.00;0.00;;;;;;;;;;1756356;28;20197;-72
2022/09/21 04:58:52;;;;;;;0.00;0.00;;;;;;;;;;1762221;27;20280;-72
2022/09/21 04:59:44;;;;;;;0.05;0.05;;;;;;;;;;1760516;28;20205;-72
2022/09/21 05:00:35;;;;;;;0.00;0.00;;;;;;;;;;1759283;28;20316;-72
2022/09/21 05:01:27;;;;;;;0.00;0.00;;;;;;;;;;1760254;28;20257;-72
2022/09/21 05:02:18;;;;;;;0.00;0.00;;;;;;;;;;1760285;28;20303;-72
2022/09/21 05:03:10;;;;;;;0.00;0.00;;;;;;;;;;1760468;28;20197;-72
2022/09/21 05:04:02;;;;;;;0.00;0.00;;;;;;;;;;1757164;28;20260;-72
2022/09/21 05:04:54;;;;;;;0.00;0.00;;;;;;;;;;1760368;28;20197;-72
2022/09/21 05:05:50;;;;;;;0.00;0.00;;;;;;;;;;1759958;28;20233;-71
2022/09/21 05:06:42;;;;;;;0.00;0.00;;;;;;;;;;1759099;28;20256;-71
2022/09/21 05:07:33;;;;;;;0.00;0.00;;;;;;;;;;1760783;28;20269;-71
2022/09/21 05:10:41;;;;;;;0.00;0.00;;;;;;;;;;1756208;28;20236;-72
2022/09/21 05:11:32;;;;;;;0.10;0.10;;;;;;;;;;1760127;28;20288;-72
2022/09/21 05:12:24;;;;;;;0.00;0.00;;;;;;;;;;1760724;28;20216;-72
2022/09/21 05:13:15;;;;;;;0.00;0.00;;;;;;;;;;1760272;28;20233;-72
2022/09/21 05:14:07;;;;;;;0.00;0.00;;;;;;;;;;1760857;28;20192;-72
2022/09/21 05:14:58;;;;;;;0.00;0.00;;;;;;;;;;1760217;28;20706;-72
2022/09/21 05:15:50;;;;;;;0.08;0.08;;;;;;;;;;1759684;28;20239;-71
2022/09/21 05:16:41;;;;;;;0.00;0.00;;;;;;;;;;1760130;28;20217;-71
2022/09/21 05:17:33;;;;;;;0.00;0.00;;;;;;;;;;1760735;28;20232;-71
2022/09/21 05:18:24;;;;;;;0.00;0.00;;;;;;;;;;1760133;28;20273;-71
2022/09/21 05:19:16;;;;;;;0.00;0.00;;;;;;;;;;1760812;28;20655;-71
2022/09/21 05:20:08;;;;;;;0.00;0.00;;;;;;;;;;1760469;28;20269;-71
2022/09/21 05:21:02;;;;;;;0.00;0.00;;;;;;;;;;1759235;28;20324;-72
2022/09/21 05:21:53;;;;;;;0.00;0.00;;;;;;;;;;1759682;28;20197;-72
2022/09/21 05:22:45;;;;;;;0.00;0.00;;;;;;;;;;1760705;28;20189;-72
2022/09/21 05:23:36;;;;;;;0.00;0.00;;;;;;;;;;1761458;27;20523;-72